createdAt,value
2019-01-23T00:00:08.045Z,24.7
2019-01-23T00:02:05.735Z,24.7
2019-01-23T00:04:08.125Z,24.7
2019-01-23T00:06:05.813Z,24.7
2019-01-23T00:08:05.541Z,24.7
2019-01-23T00:10:08.535Z,24.7
2019-01-23T00:12:05.978Z,24.7
2019-01-23T00:14:05.220Z,24.7
2019-01-23T00:16:05.433Z,24.6
2019-01-23T00:18:10.532Z,24.6
2019-01-23T00:20:05.766Z,24.6
2019-01-23T00:22:10.561Z,24.6
2019-01-23T00:24:07.748Z,24.6
2019-01-23T00:26:08.050Z,24.6
2019-01-23T00:28:05.687Z,24.6
2019-01-23T00:30:05.394Z,24.6
2019-01-23T00:32:05.142Z,24.4
2019-01-23T00:34:05.479Z,24.4
2019-01-23T00:36:07.754Z,24.6
2019-01-23T00:38:05.510Z,24.4
2019-01-23T00:40:05.229Z,24.4
2019-01-23T00:42:05.932Z,24.4
2019-01-23T00:44:08.157Z,24.4
2019-01-23T00:46:06.109Z,24.4
2019-01-23T00:48:05.899Z,24.4
2019-01-23T00:50:05.593Z,24.4
2019-01-23T00:52:05.368Z,24.4
2019-01-23T00:54:05.609Z,24.4
2019-01-23T00:56:08.323Z,24.4
2019-01-23T00:58:05.042Z,24.4
2019-01-23T01:00:05.745Z,24.4
2019-01-23T01:02:05.452Z,24.4
2019-01-23T01:04:05.725Z,24.2
2019-01-23T01:06:05.439Z,24.2
2019-01-23T01:08:07.672Z,24.2
2019-01-23T01:10:05.334Z,24.4
2019-01-23T01:12:05.102Z,24.2
2019-01-23T01:14:13.348Z,24.2
2019-01-23T01:16:07.667Z,24.2
2019-01-23T01:18:05.107Z,24.2
2019-01-23T01:20:05.872Z,24.2
2019-01-23T01:22:13.145Z,24.2
2019-01-23T01:24:05.839Z,24.2
2019-01-23T01:26:08.088Z,24.1
2019-01-23T01:28:05.894Z,24.1
2019-01-23T01:30:05.618Z,24.2
2019-01-23T01:32:05.912Z,24.1
2019-01-23T01:34:05.664Z,24.1
2019-01-23T01:36:07.926Z,24.2
2019-01-23T01:38:05.784Z,24.2
2019-01-23T01:40:05.523Z,24.2
2019-01-23T01:42:05.313Z,24.1
2019-01-23T01:44:06.024Z,24
2019-01-23T01:46:05.756Z,24.1
2019-01-23T01:48:05.783Z,24.1
2019-01-23T01:50:05.888Z,24.1
2019-01-23T01:52:08.512Z,24
2019-01-23T01:54:05.738Z,23.9
2019-01-23T01:56:07.950Z,24
2019-01-23T01:58:09.945Z,23.9
2019-01-23T02:00:05.759Z,24
2019-01-23T02:02:08.167Z,24
2019-01-23T02:04:05.402Z,24
2019-01-23T02:06:05.083Z,23.9
2019-01-23T02:08:05.757Z,23.9
2019-01-23T02:10:08.519Z,24
2019-01-23T02:18:20.297Z,23.9
2019-01-23T02:21:08.471Z,23.9
2019-01-23T02:22:06.127Z,24
2019-01-23T02:24:05.406Z,23.9
2019-01-23T02:26:05.097Z,23.8
2019-01-23T02:28:08.327Z,23.9
2019-01-23T02:30:11.046Z,23.7
2019-01-23T02:32:05.739Z,23.7
2019-01-23T02:34:05.942Z,23.9
2019-01-23T02:36:05.615Z,23.9
2019-01-23T02:38:05.409Z,23.7
2019-01-23T02:40:05.174Z,23.9
2019-01-23T02:42:05.852Z,23.7
2019-01-23T02:44:05.613Z,23.9
2019-01-23T02:46:12.918Z,23.7
2019-01-23T02:48:06.360Z,23.7
2019-01-23T02:50:05.065Z,23.7
2019-01-23T02:52:05.841Z,23.7
2019-01-23T02:54:05.516Z,23.7
2019-01-23T02:56:05.200Z,23.7
2019-01-23T02:58:05.445Z,23.7
2019-01-23T03:00:15.255Z,23.7
2019-01-23T03:02:05.043Z,23.7
2019-01-23T03:04:05.723Z,23.7
2019-01-23T03:06:08.006Z,23.7
2019-01-23T03:08:05.743Z,23.5
2019-01-23T03:10:07.961Z,23.7
2019-01-23T03:12:10.718Z,23.7
2019-01-23T03:14:05.930Z,23.7
2019-01-23T03:16:05.706Z,23.7
2019-01-23T03:18:05.637Z,23.7
2019-01-23T03:20:07.835Z,23.5
2019-01-23T03:22:10.644Z,23.5
2019-01-23T03:24:05.361Z,23.5
2019-01-23T03:26:05.266Z,23.5
2019-01-23T03:28:11.149Z,23.5
2019-01-23T03:30:05.849Z,23.5
2019-01-23T03:32:13.318Z,23.5
2019-01-23T03:34:05.051Z,23.5
2019-01-23T03:36:05.258Z,23.5
2019-01-23T03:38:05.531Z,23.5
2019-01-23T03:40:05.253Z,23.5
2019-01-23T03:42:05.952Z,23.5
2019-01-23T03:44:05.691Z,23.5
2019-01-23T03:46:05.901Z,23.5
2019-01-23T03:48:10.667Z,23.5
2019-01-23T03:50:05.374Z,23.5
2019-01-23T03:52:05.039Z,23.5
2019-01-23T03:54:05.258Z,23.5
2019-01-23T03:56:11.018Z,23.5
2019-01-23T03:58:05.691Z,23.5
2019-01-23T04:00:08.459Z,23.5
2019-01-23T04:02:05.144Z,23.5
2019-01-23T04:04:05.786Z,23.5
2019-01-23T04:06:05.512Z,23.5
2019-01-23T04:08:10.286Z,23.5
2019-01-23T04:10:06.018Z,23.5
2019-01-23T04:12:05.727Z,23.5
2019-01-23T04:14:05.533Z,23.5
2019-01-23T04:16:05.211Z,23.5
2019-01-23T04:18:05.103Z,23.3
2019-01-23T04:20:08.391Z,23.5
2019-01-23T04:22:05.182Z,23.4
2019-01-23T04:24:07.617Z,23.3
2019-01-23T04:26:05.964Z,23.3
2019-01-23T04:28:05.697Z,23.4
2019-01-23T04:30:05.437Z,23.4
2019-01-23T04:32:05.146Z,23.4
2019-01-23T04:34:18.468Z,23.3
2019-01-23T04:36:05.181Z,23.3
2019-01-23T04:38:05.854Z,23.3
2019-01-23T04:40:05.607Z,23.3
2019-01-23T04:42:05.385Z,23.3
2019-01-23T04:44:05.131Z,23.3
2019-01-23T04:46:05.105Z,23.3
2019-01-23T04:48:05.818Z,23.3
2019-01-23T04:50:05.492Z,23.4
2019-01-23T04:52:05.185Z,23.3
2019-01-23T04:54:05.477Z,23.5
2019-01-23T04:56:05.744Z,23.5
2019-01-23T04:58:05.479Z,23.5
2019-01-23T05:00:05.216Z,23.5
2019-01-23T05:02:05.934Z,23.7
2019-01-23T05:04:05.750Z,23.6
2019-01-23T05:06:08.492Z,23.6
2019-01-23T05:08:07.683Z,23.6
2019-01-23T05:10:08.047Z,23.8
2019-01-23T05:12:07.947Z,23.6
2019-01-23T05:14:05.795Z,23.5
2019-01-23T05:16:05.926Z,23.5
2019-01-23T05:18:13.381Z,23.7
2019-01-23T05:20:05.873Z,23.7
2019-01-23T05:22:05.564Z,23.7
2019-01-23T05:24:07.780Z,23.8
2019-01-23T05:26:05.464Z,23.7
2019-01-23T05:28:10.195Z,23.8
2019-01-23T05:30:05.894Z,23.8
2019-01-23T05:32:05.360Z,23.8
2019-01-23T05:34:09.011Z,23.8
2019-01-23T05:36:08.764Z,23.7
2019-01-23T05:38:07.618Z,24
2019-01-23T05:40:05.269Z,24
2019-01-23T05:42:10.985Z,23.9
2019-01-23T05:44:05.654Z,23.9
2019-01-23T05:46:05.338Z,24.1
2019-01-23T05:48:05.045Z,24.1
2019-01-23T05:50:08.369Z,24.1
2019-01-23T05:52:15.206Z,24.1
2019-01-23T05:54:05.898Z,24.1
2019-01-23T05:56:05.627Z,24.1
2019-01-23T05:58:05.356Z,24.2
2019-01-23T06:00:05.056Z,24.2
2019-01-23T06:02:10.894Z,24.2
2019-01-23T06:04:05.561Z,24.2
2019-01-23T06:06:05.240Z,24.3
2019-01-23T06:08:05.494Z,24.5
2019-01-23T06:10:05.172Z,24.4
2019-01-23T06:12:08.355Z,24.7
2019-01-23T06:14:05.006Z,24.7
2019-01-23T06:16:05.946Z,24.8
2019-01-23T06:18:05.925Z,24.8
2019-01-23T06:20:08.190Z,24.9
2019-01-23T06:22:05.883Z,24.9
2019-01-23T06:24:05.582Z,25
2019-01-23T06:26:07.782Z,25.1
2019-01-23T06:28:18.595Z,25.2
2019-01-23T06:30:10.931Z,25.3
2019-01-23T06:32:05.677Z,25.3
2019-01-23T06:34:05.502Z,25.3
2019-01-23T06:36:05.213Z,25.4
2019-01-23T06:38:13.147Z,25.4
2019-01-23T06:40:05.856Z,25.4
2019-01-23T06:42:05.148Z,25.4
2019-01-23T06:44:10.936Z,25.5
2019-01-23T06:46:05.607Z,25.5
2019-01-23T06:48:05.327Z,25.5
2019-01-23T06:50:07.717Z,25.5
2019-01-23T06:52:07.662Z,25.5
2019-01-23T06:54:05.379Z,25.5
2019-01-23T06:56:05.562Z,25.5
2019-01-23T06:58:10.284Z,25.5
2019-01-23T07:00:05.918Z,25.6
2019-01-23T07:02:05.106Z,25.5
2019-01-23T07:04:05.795Z,25.6
2019-01-23T07:06:05.556Z,25.6
2019-01-23T07:08:05.281Z,25.6
2019-01-23T07:10:06.000Z,25.5
2019-01-23T07:12:05.753Z,25.6
2019-01-23T07:14:05.490Z,25.6
2019-01-23T07:16:07.683Z,25.7
2019-01-23T07:18:05.581Z,25.7
2019-01-23T07:20:08.029Z,25.6
2019-01-23T07:22:05.761Z,25.6
2019-01-23T07:24:05.669Z,25.6
2019-01-23T07:26:05.133Z,25.6
2019-01-23T07:28:05.868Z,25.6
2019-01-23T07:30:08.072Z,25.6
2019-01-23T07:32:05.706Z,25.6
2019-01-23T07:34:08.092Z,25.4
2019-01-23T07:36:05.795Z,25.6
2019-01-23T07:38:05.560Z,25.6
2019-01-23T07:40:07.765Z,25.6
2019-01-23T07:42:06.025Z,25.6
2019-01-23T07:44:05.303Z,25.6
2019-01-23T07:46:05.978Z,25.6
2019-01-23T07:48:08.220Z,25.5
2019-01-23T07:50:05.439Z,25.5
2019-01-23T07:52:05.159Z,25.5
2019-01-23T07:54:08.407Z,25.5
2019-01-23T07:56:05.062Z,25.5
2019-01-23T07:58:08.295Z,25.4
2019-01-23T08:00:08.502Z,25.4
2019-01-23T08:02:08.253Z,25.4
2019-01-23T08:04:05.549Z,25.4
2019-01-23T08:06:05.298Z,25.4
2019-01-23T08:08:05.961Z,25.4
2019-01-23T08:10:05.653Z,25.4
2019-01-23T08:12:12.946Z,25.4
2019-01-23T08:14:05.233Z,25.4
2019-01-23T08:16:05.175Z,25.4
2019-01-23T08:18:05.133Z,25.4
2019-01-23T08:20:05.934Z,25.4
2019-01-23T08:22:05.572Z,25.4
2019-01-23T08:24:15.328Z,25.4
2019-01-23T08:26:05.035Z,25.4
2019-01-23T08:28:08.262Z,25.4
2019-01-23T08:30:08.678Z,25.3
2019-01-23T08:32:08.050Z,25.4
2019-01-23T08:34:05.733Z,25.3
2019-01-23T08:36:07.958Z,25.3
2019-01-23T08:38:05.778Z,25.3
2019-01-23T08:40:07.961Z,25.3
2019-01-23T08:42:08.265Z,25.3
2019-01-23T08:44:05.699Z,25.3
2019-01-23T08:46:05.363Z,25.3
2019-01-23T08:48:10.169Z,25.4
2019-01-23T08:50:05.820Z,25.4
2019-01-23T08:52:05.074Z,25.4
2019-01-23T08:54:08.358Z,25.4
2019-01-23T08:56:05.188Z,25.4
2019-01-23T08:58:08.426Z,25.3
2019-01-23T09:00:05.686Z,25.3
2019-01-23T09:02:05.384Z,25.3
2019-01-23T09:04:05.053Z,25.2
2019-01-23T09:06:08.375Z,25.4
2019-01-23T09:08:08.157Z,25.5
2019-01-23T09:10:05.869Z,25.5
2019-01-23T09:12:05.539Z,25.4
2019-01-23T09:14:05.250Z,25.6
2019-01-23T09:16:05.927Z,25.5
2019-01-23T09:18:07.470Z,25.5
2019-01-23T09:20:05.207Z,25.4
2019-01-23T09:22:05.916Z,25.4
2019-01-23T09:24:05.606Z,25.6
2019-01-23T09:26:05.415Z,25.6
2019-01-23T09:28:05.300Z,25.5
2019-01-23T09:30:06.008Z,25.5
2019-01-23T09:32:05.741Z,25.5
2019-01-23T09:34:05.429Z,25.5
2019-01-23T09:36:05.154Z,25.5
2019-01-23T09:38:07.926Z,25.4
2019-01-23T09:40:05.583Z,25.6
2019-01-23T09:42:05.255Z,25.4
2019-01-23T09:44:05.958Z,25.6
2019-01-23T09:46:05.670Z,25.6
2019-01-23T09:48:05.429Z,25.5
2019-01-23T09:50:05.203Z,25.5
2019-01-23T09:52:08.392Z,25.3
2019-01-23T09:54:05.609Z,25.5
2019-01-23T09:56:05.274Z,25.3
2019-01-23T09:58:08.480Z,25.3
2019-01-23T10:00:12.807Z,25.3
2019-01-23T10:02:05.504Z,25.3
2019-01-23T10:04:05.174Z,25.3
2019-01-23T10:06:05.869Z,25.4
2019-01-23T10:08:08.068Z,25.3
2019-01-23T10:10:05.726Z,25.1
2019-01-23T10:12:08.086Z,25.2
2019-01-23T10:14:08.320Z,25.2
2019-01-23T10:16:05.545Z,25.2
2019-01-23T10:18:05.556Z,25.2
2019-01-23T10:20:12.796Z,25.2
2019-01-23T10:22:05.466Z,25.2
2019-01-23T10:24:05.171Z,25.2
2019-01-23T10:26:05.479Z,25.1
2019-01-23T10:28:05.162Z,25.1
2019-01-23T10:30:05.832Z,25.2
2019-01-23T10:32:05.540Z,25.2
2019-01-23T10:34:05.815Z,25.2
2019-01-23T10:36:05.615Z,25.2
2019-01-23T10:38:05.819Z,25.2
2019-01-23T10:40:05.478Z,25.2
2019-01-23T10:42:05.198Z,25.2
2019-01-23T10:44:08.514Z,25.2
2019-01-23T10:46:05.186Z,25.2
2019-01-23T10:48:05.949Z,25.3
2019-01-23T10:50:05.626Z,25.2
2019-01-23T10:52:07.805Z,25.3
2019-01-23T10:54:08.081Z,25.3
2019-01-23T10:56:05.820Z,25.1
2019-01-23T10:58:05.477Z,25.2
2019-01-23T11:00:05.389Z,25.3
2019-01-23T11:02:10.276Z,25.2
2019-01-23T11:04:05.982Z,25.2
2019-01-23T11:06:05.696Z,25.1
2019-01-23T11:08:05.400Z,25
2019-01-23T11:10:10.200Z,25.1
2019-01-23T11:12:05.917Z,25.1
2019-01-23T11:14:05.638Z,25.1
2019-01-23T11:16:05.327Z,25.1
2019-01-23T11:18:05.255Z,25.1
2019-01-23T11:20:05.131Z,25.1
2019-01-23T11:22:05.353Z,25.1
2019-01-23T11:24:05.661Z,25
2019-01-23T11:26:05.350Z,25.1
2019-01-23T11:28:10.073Z,25.1
2019-01-23T11:30:05.805Z,25.1
2019-01-23T11:32:10.555Z,25.1
2019-01-23T11:34:05.223Z,25.1
2019-01-23T11:36:06.057Z,25.1
2019-01-23T11:38:05.719Z,25.1
2019-01-23T11:40:07.922Z,25.1
2019-01-23T11:42:05.572Z,25.1
2019-01-23T11:44:05.781Z,25.1
2019-01-23T11:46:05.625Z,25.1
2019-01-23T11:48:05.393Z,25.1
2019-01-23T11:50:05.247Z,25
2019-01-23T11:52:05.994Z,25
2019-01-23T11:54:05.706Z,25
2019-01-23T11:56:09.270Z,25
2019-01-23T11:58:05.964Z,25
2019-01-23T12:00:08.163Z,25
2019-01-23T12:02:05.827Z,25
2019-01-23T12:04:05.099Z,25
2019-01-23T12:06:05.774Z,25
2019-01-23T12:08:06.031Z,25
2019-01-23T12:10:08.254Z,25
2019-01-23T12:12:05.473Z,25
2019-01-23T12:14:10.211Z,25
2019-01-23T12:16:06.042Z,25.2
2019-01-23T12:18:06.043Z,25
2019-01-23T12:20:05.727Z,25.2
2019-01-23T12:22:05.389Z,25.2
2019-01-23T12:24:05.086Z,25.1
2019-01-23T12:26:05.136Z,25.1
2019-01-23T12:28:10.912Z,25.1
2019-01-23T12:30:05.594Z,25.1
2019-01-23T12:32:05.290Z,25.1
2019-01-23T12:34:08.484Z,25.1
2019-01-23T12:36:05.130Z,25.1
2019-01-23T12:38:05.821Z,25
2019-01-23T12:40:08.116Z,25
2019-01-23T12:42:05.835Z,25
2019-01-23T12:44:05.489Z,25
2019-01-23T12:46:11.791Z,25
2019-01-23T12:48:05.459Z,25
2019-01-23T12:50:05.179Z,25.1
2019-01-23T12:52:05.903Z,25
2019-01-23T12:54:05.336Z,25.1
2019-01-23T12:56:07.584Z,24.9
2019-01-23T12:58:07.854Z,24.9
2019-01-23T13:00:05.926Z,24.9
2019-01-23T13:02:10.210Z,24.9
2019-01-23T13:04:05.900Z,24.9
2019-01-23T13:06:08.140Z,24.9
2019-01-23T13:08:08.354Z,24.9
2019-01-23T13:10:07.617Z,24.9
2019-01-23T13:12:05.354Z,24.9
2019-01-23T13:14:05.092Z,24.9
2019-01-23T13:16:05.294Z,24.9
2019-01-23T13:18:05.171Z,24.9
2019-01-23T13:20:08.398Z,24.9
2019-01-23T13:22:05.115Z,24.9
2019-01-23T13:24:08.344Z,24.9
2019-01-23T13:26:07.637Z,25.1
2019-01-23T13:28:05.346Z,24.9
2019-01-23T13:30:08.117Z,25
2019-01-23T13:32:05.421Z,25
2019-01-23T13:34:05.085Z,25
2019-01-23T13:36:05.788Z,25
2019-01-23T13:38:05.796Z,25
2019-01-23T13:40:07.979Z,25
2019-01-23T13:42:05.809Z,25
2019-01-23T13:44:05.494Z,25
2019-01-23T13:46:05.160Z,25
2019-01-23T13:48:08.004Z,24.9
2019-01-23T13:50:08.266Z,25
2019-01-23T13:52:05.978Z,24.9
2019-01-23T13:54:07.797Z,25
2019-01-23T13:56:05.533Z,25
2019-01-23T13:58:05.832Z,24.8
2019-01-23T14:00:08.071Z,24.8
2019-01-23T14:02:05.981Z,24.8
2019-01-23T14:04:10.747Z,24.8
2019-01-23T14:06:05.425Z,24.8
2019-01-23T14:08:08.045Z,24.8
2019-01-23T14:10:05.713Z,24.8
2019-01-23T14:12:05.415Z,24.8
2019-01-23T14:14:05.700Z,24.8
2019-01-23T14:16:05.888Z,24.8
2019-01-23T14:18:05.342Z,24.8
2019-01-23T14:20:05.058Z,24.9
2019-01-23T14:22:05.737Z,24.9
2019-01-23T14:24:07.958Z,24.9
2019-01-23T14:26:08.240Z,24.8
2019-01-23T14:28:05.122Z,24.9
2019-01-23T14:30:05.803Z,24.8
2019-01-23T14:32:05.467Z,24.8
2019-01-23T14:34:05.165Z,25
2019-01-23T14:36:05.839Z,25
2019-01-23T14:38:05.528Z,25
2019-01-23T14:40:05.270Z,24.9
2019-01-23T14:42:06.099Z,25
2019-01-23T14:44:07.829Z,24.9
2019-01-23T14:46:05.486Z,24.9
2019-01-23T14:48:05.148Z,24.9
2019-01-23T14:50:05.835Z,24.9
2019-01-23T14:52:05.999Z,24.7
2019-01-23T14:54:05.733Z,24.7
2019-01-23T14:56:05.444Z,24.7
2019-01-23T14:58:10.227Z,24.7
2019-01-23T15:00:05.957Z,24.7
2019-01-23T15:02:10.657Z,24.7
2019-01-23T15:04:10.387Z,24.7
2019-01-23T15:06:05.616Z,24.7
2019-01-23T15:08:07.818Z,24.7
2019-01-23T15:10:05.614Z,24.7
2019-01-23T15:12:05.407Z,24.7
2019-01-23T15:14:07.649Z,24.6
2019-01-23T15:16:05.421Z,24.6
2019-01-23T15:18:05.391Z,24.6
2019-01-23T15:20:10.137Z,24.6
2019-01-23T15:22:08.375Z,24.6
2019-01-23T15:24:07.876Z,24.6
2019-01-23T15:26:05.569Z,24.6
2019-01-23T15:28:05.295Z,24.6
2019-01-23T15:30:06.118Z,24.9
2019-01-23T15:32:05.817Z,24.9
2019-01-23T15:34:10.133Z,24.9
2019-01-23T15:36:08.399Z,24.9
2019-01-23T15:38:08.024Z,25
2019-01-23T15:40:05.994Z,25
2019-01-23T15:42:06.112Z,25.2
2019-01-23T15:44:05.813Z,25.2
2019-01-23T15:46:05.497Z,25.2
2019-01-23T15:48:05.494Z,25.2
2019-01-23T15:50:10.777Z,25.2
2019-01-23T15:52:05.658Z,25.2
2019-01-23T15:54:05.419Z,25.2
2019-01-23T15:56:07.701Z,25.2
2019-01-23T15:58:05.555Z,25.2
2019-01-23T16:00:06.474Z,25.2
2019-01-23T16:02:05.737Z,25.2
2019-01-23T16:04:08.016Z,25.2
2019-01-23T16:06:05.758Z,25.2
2019-01-23T16:08:05.694Z,25.3
2019-01-23T16:10:07.924Z,25.3
2019-01-23T16:12:05.171Z,25.3
2019-01-23T16:14:05.333Z,25.3
2019-01-23T16:16:04.992Z,25.2
2019-01-23T16:18:05.944Z,25.1
2019-01-23T16:20:05.623Z,25.1
2019-01-23T16:22:05.364Z,25.1
2019-01-23T16:24:05.629Z,25.1
2019-01-23T16:26:08.378Z,25.1
2019-01-23T16:28:10.119Z,25
2019-01-23T16:30:05.845Z,25
2019-01-23T16:32:07.879Z,25.1
2019-01-23T16:34:05.575Z,25
2019-01-23T16:36:10.298Z,25
2019-01-23T16:38:06.012Z,25
2019-01-23T16:40:05.683Z,25
2019-01-23T16:42:08.014Z,25
2019-01-23T16:44:05.965Z,25.1
2019-01-23T16:46:05.664Z,25.1
2019-01-23T16:48:05.410Z,25.1
2019-01-23T16:50:05.033Z,25
2019-01-23T16:52:05.721Z,25
2019-01-23T16:54:05.402Z,25
2019-01-23T16:56:05.125Z,25
2019-01-23T16:58:08.322Z,24.9
2019-01-23T17:00:08.601Z,24.9
2019-01-23T17:02:11.031Z,24.9
2019-01-23T17:04:08.315Z,24.9
2019-01-23T17:06:05.072Z,24.9
2019-01-23T17:08:05.841Z,24.9
2019-01-23T17:10:08.037Z,24.9
2019-01-23T17:12:13.459Z,24.9
2019-01-23T17:14:10.167Z,24.9
2019-01-23T17:16:05.867Z,24.9
2019-01-23T17:18:05.740Z,24.8
2019-01-23T17:20:08.437Z,24.8
2019-01-23T17:22:05.108Z,24.6
2019-01-23T17:24:10.867Z,24.7
2019-01-23T17:26:05.578Z,24.7
2019-01-23T17:28:05.235Z,24.6
2019-01-23T17:30:05.117Z,24.6
2019-01-23T17:32:05.410Z,24.7
2019-01-23T17:34:05.096Z,24.7
2019-01-23T17:36:06.059Z,24.7
2019-01-23T17:38:05.781Z,24.7
2019-01-23T17:40:07.987Z,24.7
2019-01-23T17:42:05.719Z,24.7
2019-01-23T17:44:08.026Z,24.7
2019-01-23T17:46:05.691Z,24.7
2019-01-23T17:48:07.960Z,24.7
2019-01-23T17:50:05.669Z,24.7
2019-01-23T17:52:08.845Z,24.9
2019-01-23T17:54:05.578Z,24.7
2019-01-23T17:56:05.512Z,24.9
2019-01-23T17:58:05.641Z,24.8
2019-01-23T18:00:05.298Z,24.8
2019-01-23T18:02:08.275Z,24.8
2019-01-23T18:04:08.647Z,24.7
2019-01-23T18:06:05.324Z,24.8
2019-01-23T18:08:06.022Z,24.8
2019-01-23T18:10:05.724Z,24.7
2019-01-23T18:12:05.885Z,24.7
2019-01-23T18:14:05.980Z,24.7
2019-01-23T18:16:08.012Z,24.7
2019-01-23T18:18:08.485Z,24.7
2019-01-23T18:20:05.133Z,24.7
2019-01-23T18:22:05.830Z,24.7
2019-01-23T18:24:05.508Z,24.7
2019-01-23T18:26:05.235Z,24.7
2019-01-23T18:28:05.418Z,24.7
2019-01-23T18:30:05.195Z,24.7
2019-01-23T18:32:06.104Z,24.7
2019-01-23T18:34:05.562Z,24.7
2019-01-23T18:36:05.255Z,24.7
2019-01-23T18:38:05.142Z,24.5
2019-01-23T18:40:05.905Z,24.5
2019-01-23T18:42:05.390Z,24.5
2019-01-23T18:44:07.988Z,24.5
2019-01-23T18:46:05.778Z,24.5
2019-01-23T18:48:10.786Z,24.5
2019-01-23T18:50:05.626Z,24.5
2019-01-23T18:52:07.886Z,24.6
2019-01-23T18:54:05.540Z,24.6
2019-01-23T18:56:05.228Z,24.6
2019-01-23T18:58:06.888Z,24.6
2019-01-23T19:00:09.122Z,24.5
2019-01-23T19:02:05.782Z,24.7
2019-01-23T19:04:07.995Z,24.7
2019-01-23T19:06:05.684Z,24.7
2019-01-23T19:08:05.407Z,24.7
2019-01-23T19:10:05.594Z,24.7
2019-01-23T19:12:05.286Z,24.6
2019-01-23T19:14:11.117Z,24.6
2019-01-23T19:16:05.364Z,24.6
2019-01-23T19:18:05.796Z,24.6
2019-01-23T19:20:07.641Z,24.6
2019-01-23T19:22:05.344Z,24.6
2019-01-23T19:24:07.613Z,24.6
2019-01-23T19:26:08.875Z,24.6
2019-01-23T19:28:08.168Z,24.6
2019-01-23T19:30:09.839Z,24.6
2019-01-23T19:32:08.080Z,24.6
2019-01-23T19:34:08.399Z,24.6
2019-01-23T19:36:07.592Z,24.6
2019-01-23T19:38:05.278Z,24.6
2019-01-23T19:40:05.617Z,24.7
2019-01-23T19:42:05.328Z,24.7
2019-01-23T19:44:05.092Z,24.8
2019-01-23T19:46:05.770Z,24.8
2019-01-23T19:48:05.536Z,24.8
2019-01-23T19:50:05.378Z,24.8
2019-01-23T19:52:05.176Z,24.8
2019-01-23T19:54:08.438Z,24.9
2019-01-23T19:56:05.155Z,24.9
2019-01-23T19:58:08.363Z,24.9
2019-01-23T20:00:05.124Z,24.9
2019-01-23T20:02:10.836Z,25
2019-01-23T20:04:05.513Z,25
2019-01-23T20:06:05.202Z,25.2
2019-01-23T20:08:05.884Z,25.3
2019-01-23T20:10:05.154Z,25.4
2019-01-23T20:12:05.095Z,25.4
2019-01-23T20:14:05.909Z,25.4
2019-01-23T20:16:06.026Z,25.6
2019-01-23T20:18:05.504Z,25.3
2019-01-23T20:20:05.635Z,25.3
2019-01-23T20:22:06.178Z,25.3
2019-01-23T20:24:05.170Z,25.4
2019-01-23T20:26:05.073Z,25.3
2019-01-23T20:28:05.777Z,25.4
2019-01-23T20:30:05.525Z,25.4
2019-01-23T20:32:05.530Z,25.3
2019-01-23T20:34:05.324Z,25.2
2019-01-23T20:36:05.999Z,25.4
2019-01-23T20:38:05.300Z,25.2
2019-01-23T20:40:06.092Z,25.3
2019-01-23T20:42:05.760Z,25.3
2019-01-23T20:44:07.614Z,25.3
2019-01-23T20:46:05.418Z,25.3
2019-01-23T20:48:05.215Z,25.4
2019-01-23T20:50:06.002Z,25.4
2019-01-23T20:52:07.907Z,25.4
2019-01-23T20:54:05.163Z,25.4
2019-01-23T20:56:08.433Z,25.4
2019-01-23T20:58:05.219Z,25.4
2019-01-23T21:00:08.498Z,25.4
2019-01-23T21:02:05.179Z,25.4
2019-01-23T21:04:05.898Z,25.4
2019-01-23T21:06:05.090Z,25.4
2019-01-23T21:08:05.727Z,25.6
2019-01-23T21:10:10.617Z,25.5
2019-01-23T21:12:05.677Z,25.5
2019-01-23T21:14:05.037Z,25.5
2019-01-23T21:16:05.201Z,25.5
2019-01-23T21:18:05.078Z,25.5
2019-01-23T21:20:05.330Z,25.5
2019-01-23T21:22:05.122Z,25.5
2019-01-23T21:24:05.767Z,25.4
2019-01-23T21:26:05.450Z,25.2
2019-01-23T21:28:05.728Z,25.2
2019-01-23T21:30:05.406Z,25.2
2019-01-23T21:32:05.060Z,25.2
2019-01-23T21:34:10.510Z,25.2
2019-01-23T21:36:05.166Z,25.2
2019-01-23T21:38:07.590Z,25.2
2019-01-23T21:40:05.351Z,25.1
2019-01-23T21:42:05.015Z,25.1
2019-01-23T21:44:05.706Z,25.2
2019-01-23T21:46:05.402Z,25
2019-01-23T21:48:05.092Z,25
2019-01-23T21:50:05.537Z,25
2019-01-23T21:52:05.744Z,24.9
2019-01-23T21:54:05.473Z,24.9
2019-01-23T21:56:10.156Z,24.9
2019-01-23T21:58:05.867Z,24.9
2019-01-23T22:00:05.990Z,24.9
2019-01-23T22:02:08.293Z,24.9
2019-01-23T22:04:09.110Z,25
2019-01-23T22:06:07.914Z,25
2019-01-23T22:08:05.656Z,25
2019-01-23T22:10:05.794Z,24.8
2019-01-23T22:12:05.835Z,24.9
2019-01-23T22:14:05.525Z,25
2019-01-23T22:16:06.486Z,25
2019-01-23T22:18:05.811Z,24.9
2019-01-23T22:20:05.637Z,24.8
2019-01-23T22:22:05.574Z,25
2019-01-23T22:24:05.293Z,24.7
2019-01-23T22:26:11.040Z,24.8
2019-01-23T22:28:06.410Z,24.7
2019-01-23T22:30:05.202Z,24.8
2019-01-23T22:32:06.961Z,24.8
2019-01-23T22:34:05.677Z,24.9
2019-01-23T22:36:05.445Z,24.7
2019-01-23T22:38:05.171Z,24.9
2019-01-23T22:40:05.851Z,24.9
2019-01-23T22:42:05.568Z,24.8
2019-01-23T22:44:05.369Z,24.8
2019-01-23T22:46:05.105Z,24.8
2019-01-23T22:48:10.933Z,24.8
2019-01-23T22:50:05.606Z,24.8
2019-01-23T22:52:05.299Z,24.8
2019-01-23T22:54:05.979Z,24.7
2019-01-23T22:56:08.152Z,24.7
2019-01-23T22:58:08.400Z,24.7
2019-01-23T23:00:05.117Z,24.7
2019-01-23T23:02:15.919Z,24.7
2019-01-23T23:04:05.644Z,24.7
2019-01-23T23:06:05.486Z,24.7
2019-01-23T23:08:07.741Z,24.6
2019-01-23T23:10:10.525Z,24.6
2019-01-23T23:12:05.202Z,24.6
2019-01-23T23:14:13.772Z,24.5
2019-01-23T23:16:05.024Z,24.5
2019-01-23T23:18:05.926Z,24.5
2019-01-23T23:20:05.251Z,24.5
2019-01-23T23:22:05.940Z,24.5
2019-01-23T23:24:05.668Z,24.5
2019-01-23T23:26:05.349Z,24.5
2019-01-23T23:28:05.503Z,24.5
2019-01-23T23:30:05.225Z,24.5
2019-01-23T23:32:05.990Z,24.5
2019-01-23T23:34:10.686Z,24.4
2019-01-23T23:36:05.457Z,24.4
2019-01-23T23:38:05.171Z,24.4
2019-01-23T23:40:05.412Z,24.4
2019-01-23T23:42:05.121Z,24.4
2019-01-23T23:44:05.875Z,24.4
2019-01-23T23:46:05.604Z,24.4
2019-01-23T23:48:05.508Z,24.4
2019-01-23T23:50:05.761Z,24.4
2019-01-23T23:52:05.960Z,24.2
2019-01-23T23:54:05.634Z,24.4
2019-01-23T23:56:16.040Z,24.2
2019-01-23T23:58:05.796Z,24.4
